createdAt,value
2022-11-28T00:01:36.116Z,17.25
2022-11-28T00:04:07.999Z,20.30
2022-11-28T00:06:40.146Z,15.80
2022-11-28T00:09:08.696Z,14.95
2022-11-28T00:11:36.325Z,14.80
2022-11-28T00:14:04.311Z,16.33
2022-11-28T00:16:32.377Z,15.52
2022-11-28T00:19:00.360Z,14.98
2022-11-28T00:21:28.047Z,16.17
2022-11-28T00:23:55.524Z,13.80
2022-11-28T00:26:24.653Z,17.13
2022-11-28T00:28:52.488Z,15.20
2022-11-28T00:31:23.086Z,14.88
2022-11-28T00:33:50.978Z,12.60
2022-11-28T00:36:19.266Z,12.20
2022-11-28T00:38:46.989Z,12.45
2022-11-28T00:41:17.456Z,13.88
2022-11-28T00:46:13.746Z,13.05
2022-11-28T00:48:41.743Z,12.75
2022-11-28T00:51:13.988Z,15.77
2022-11-28T00:53:42.876Z,16.10
2022-11-28T00:56:12.367Z,15.18
2022-11-28T00:58:40.775Z,14.57
2022-11-28T01:03:36.519Z,16.52
2022-11-28T01:06:04.374Z,18.23
2022-11-28T01:08:32.051Z,13.35
2022-11-28T01:10:59.807Z,13.52
2022-11-28T01:13:27.917Z,12.50
2022-11-28T01:15:55.531Z,15.52
2022-11-28T01:18:23.144Z,13.48
2022-11-28T01:20:53.893Z,12.52
2022-11-28T01:25:48.820Z,14.45
2022-11-28T01:28:16.830Z,13.52
2022-11-28T01:30:44.490Z,11.90
2022-11-28T01:33:12.022Z,12.40
2022-11-28T01:35:41.660Z,11.30
2022-11-28T01:38:09.269Z,15.53
2022-11-28T01:40:45.847Z,12.75
2022-11-28T01:43:13.633Z,13.48
2022-11-28T01:45:41.409Z,12.45
2022-11-28T01:48:10.509Z,13.43
2022-11-28T01:50:38.617Z,12.30
2022-11-28T01:53:07.854Z,14.32
2022-11-28T01:55:38.743Z,15.20
2022-11-28T01:58:07.054Z,11.20
2022-11-28T02:00:38.364Z,17.50
2022-11-28T02:03:18.968Z,13.23
2022-11-28T02:05:46.834Z,19.75
2022-11-28T02:08:15.492Z,12.95
2022-11-28T02:11:02.336Z,18.25
2022-11-28T02:13:55.280Z,14.98
2022-11-28T02:16:37.936Z,11.75
2022-11-28T02:19:22.125Z,14.27
2022-11-28T02:21:56.352Z,14.32
2022-11-28T02:24:53.456Z,14.77
2022-11-28T02:27:29.612Z,12.75
2022-11-28T02:30:06.633Z,13.98
2022-11-28T02:32:48.383Z,16.08
2022-11-28T02:35:19.425Z,14.77
2022-11-28T02:37:53.147Z,13.75
2022-11-28T02:40:39.636Z,13.80
2022-11-28T02:43:26.006Z,15.82
2022-11-28T02:45:57.283Z,17.33
2022-11-28T02:48:24.812Z,18.30
2022-11-28T02:51:14.508Z,15.52
2022-11-28T02:53:43.983Z,14.60
2022-11-28T02:56:12.089Z,13.20
2022-11-28T02:58:39.792Z,12.95
2022-11-28T03:01:08.254Z,11.00
2022-11-28T03:03:39.720Z,11.93
2022-11-28T03:06:26.233Z,15.10
2022-11-28T03:09:13.100Z,13.48
2022-11-28T03:11:59.745Z,10.65
2022-11-28T03:14:27.609Z,10.93
2022-11-28T03:16:55.577Z,10.85
2022-11-28T03:19:25.986Z,14.23
2022-11-28T03:24:34.410Z,10.30
2022-11-28T03:27:17.653Z,9.45
2022-11-28T03:29:51.061Z,12.15
2022-11-28T03:32:25.903Z,12.93
2022-11-28T03:34:57.264Z,12.38
2022-11-28T03:37:27.802Z,17.65
2022-11-28T03:42:28.648Z,13.98
2022-11-28T03:45:22.776Z,14.55
2022-11-28T03:47:55.300Z,14.57
2022-11-28T03:50:26.690Z,15.35
2022-11-28T03:52:59.444Z,14.82
2022-11-28T03:55:35.631Z,15.43
2022-11-28T03:58:26.024Z,14.55
2022-11-28T04:01:13.957Z,16.05
2022-11-28T04:03:41.898Z,12.45
2022-11-28T04:06:18.890Z,15.20
2022-11-28T04:08:51.011Z,16.13
2022-11-28T04:11:24.028Z,18.00
2022-11-28T04:14:10.413Z,16.98
2022-11-28T04:16:52.180Z,17.95
2022-11-28T04:19:21.390Z,14.00
2022-11-28T04:21:54.721Z,13.88
2022-11-28T04:24:26.587Z,13.15
2022-11-28T04:26:56.925Z,18.58
2022-11-28T04:29:25.454Z,16.58
2022-11-28T04:31:55.840Z,13.68
2022-11-28T04:34:23.795Z,16.08
2022-11-28T04:36:52.267Z,13.75
2022-11-28T04:39:22.190Z,12.48
2022-11-28T04:41:53.952Z,11.00
2022-11-28T04:44:41.507Z,13.32
2022-11-28T04:47:09.779Z,13.43
2022-11-28T04:49:43.344Z,12.55
2022-11-28T04:52:14.352Z,11.43
2022-11-28T04:54:55.372Z,11.88
2022-11-28T04:57:27.822Z,11.68
2022-11-28T04:59:56.519Z,12.05
2022-11-28T05:02:25.657Z,9.48
2022-11-28T05:04:55.813Z,11.48
2022-11-28T05:07:24.381Z,9.93
2022-11-28T05:09:52.232Z,11.52
2022-11-28T05:12:20.141Z,11.75
2022-11-28T05:14:47.662Z,12.88
2022-11-28T05:17:15.286Z,10.30
2022-11-28T05:19:43.121Z,10.60
2022-11-28T05:22:10.768Z,9.38
2022-11-28T05:24:38.526Z,11.93
2022-11-28T05:27:09.269Z,11.25
2022-11-28T05:29:37.023Z,10.88
2022-11-28T05:32:04.903Z,10.73
2022-11-28T05:34:35.729Z,14.52
2022-11-28T05:37:04.178Z,9.98
2022-11-28T05:39:33.748Z,11.32
2022-11-28T05:42:02.165Z,12.40
2022-11-28T05:44:30.158Z,11.00
2022-11-28T05:46:57.858Z,10.57
2022-11-28T05:49:26.438Z,9.68
2022-11-28T05:51:54.276Z,10.25
2022-11-28T05:54:27.381Z,9.43
2022-11-28T05:56:54.844Z,10.15
2022-11-28T05:59:22.925Z,10.00
2022-11-28T06:01:50.441Z,12.38
2022-11-28T06:04:18.043Z,12.13
2022-11-28T06:06:46.051Z,11.43
2022-11-28T06:09:14.115Z,11.20
2022-11-28T06:11:41.600Z,11.77
2022-11-28T06:14:09.090Z,12.95
2022-11-28T06:16:37.222Z,13.00
2022-11-28T06:19:06.532Z,11.63
2022-11-28T06:21:35.351Z,9.50
2022-11-28T06:24:06.016Z,12.05
2022-11-28T06:29:06.332Z,12.25
2022-11-28T06:31:35.529Z,12.02
2022-11-28T06:34:03.676Z,13.60
2022-11-28T06:36:32.567Z,12.32
2022-11-28T06:39:03.500Z,14.52
2022-11-28T06:41:31.402Z,11.80
2022-11-28T06:44:03.392Z,11.20
2022-11-28T06:46:30.931Z,13.70
2022-11-28T06:48:59.636Z,13.88
2022-11-28T06:51:27.511Z,12.88
2022-11-28T06:53:55.739Z,13.23
2022-11-28T06:56:23.616Z,11.48
2022-11-28T06:58:56.657Z,11.00
2022-11-28T07:01:25.186Z,11.18
2022-11-28T07:03:54.536Z,15.15
2022-11-28T07:06:23.495Z,12.98
2022-11-28T07:08:51.441Z,18.05
2022-11-28T07:11:20.865Z,12.50
2022-11-28T07:13:49.117Z,10.95
2022-11-28T07:16:21.319Z,13.40
2022-11-28T07:18:49.687Z,11.88
2022-11-28T07:21:17.626Z,11.27
2022-11-28T07:23:45.253Z,12.00
2022-11-28T07:26:13.825Z,13.15
2022-11-28T07:28:44.845Z,14.93
2022-11-28T07:31:17.473Z,14.43
2022-11-28T07:33:46.627Z,21.75
2022-11-28T07:36:15.767Z,12.70
2022-11-28T07:38:43.415Z,13.13
2022-11-28T07:41:12.314Z,14.15
2022-11-28T07:43:40.620Z,13.32
2022-11-28T07:46:10.355Z,15.93
2022-11-28T07:48:37.987Z,16.70
2022-11-28T07:51:09.534Z,18.80
2022-11-28T07:53:37.641Z,13.43
2022-11-28T07:56:06.932Z,13.10
2022-11-28T07:58:35.532Z,13.40
2022-11-28T08:01:10.734Z,12.82
2022-11-28T08:03:39.355Z,16.00
2022-11-28T08:06:07.726Z,14.65
2022-11-28T08:08:35.696Z,12.70
2022-11-28T08:11:05.792Z,13.10
2022-11-28T08:13:34.921Z,13.95
2022-11-28T08:16:06.931Z,11.98
2022-11-28T08:18:35.406Z,12.77
2022-11-28T08:21:13.687Z,14.75
2022-11-28T08:23:41.809Z,12.98
2022-11-28T08:26:10.876Z,17.15
2022-11-28T08:28:38.644Z,13.50
2022-11-28T08:31:10.798Z,13.57
2022-11-28T08:33:39.090Z,14.88
2022-11-28T08:36:10.389Z,12.73
2022-11-28T08:38:38.365Z,14.77
2022-11-28T08:41:10.560Z,16.88
2022-11-28T08:43:39.042Z,13.45
2022-11-28T08:46:07.580Z,15.75
2022-11-28T08:48:36.108Z,14.55
2022-11-28T08:51:04.388Z,14.02
2022-11-28T08:53:32.362Z,14.57
2022-11-28T08:56:00.346Z,14.80
2022-11-28T08:58:28.065Z,17.63
2022-11-28T09:00:55.547Z,13.10
2022-11-28T09:03:23.122Z,13.80
2022-11-28T09:05:54.873Z,17.27
2022-11-28T09:08:22.785Z,13.88
2022-11-28T09:10:50.206Z,13.45
2022-11-28T09:13:17.895Z,13.07
2022-11-28T09:15:51.160Z,13.25
2022-11-28T09:18:21.850Z,15.38
2022-11-28T09:20:49.814Z,12.52
2022-11-28T09:23:17.641Z,13.85
2022-11-28T09:25:45.206Z,13.40
2022-11-28T09:28:13.080Z,13.20
2022-11-28T09:30:40.570Z,12.10
2022-11-28T09:33:08.984Z,11.57
2022-11-28T09:35:38.998Z,15.77
2022-11-28T09:38:07.841Z,12.33
2022-11-28T09:40:44.854Z,10.20
2022-11-28T09:43:33.919Z,13.90
2022-11-28T09:46:03.490Z,11.80
2022-11-28T09:48:34.708Z,11.88
2022-11-28T09:51:06.338Z,10.95
2022-11-28T09:53:42.991Z,11.43
2022-11-28T09:56:12.987Z,11.10
2022-11-28T09:58:44.874Z,13.13
2022-11-28T10:01:27.654Z,13.38
2022-11-28T10:04:00.629Z,11.40
2022-11-28T10:06:32.870Z,13.38
2022-11-28T10:09:12.893Z,13.18
2022-11-28T10:11:54.518Z,12.10
2022-11-28T10:14:44.585Z,13.80
2022-11-28T10:17:18.186Z,11.50
2022-11-28T10:19:54.692Z,12.52
2022-11-28T10:22:36.876Z,16.85
2022-11-28T10:25:08.052Z,13.63
2022-11-28T10:27:36.705Z,15.18
2022-11-28T10:30:05.010Z,14.73
2022-11-28T10:32:35.720Z,15.15
2022-11-28T10:35:06.486Z,15.75
2022-11-28T10:37:37.013Z,19.17
2022-11-28T10:42:36.933Z,17.73
2022-11-28T10:45:13.633Z,19.13
2022-11-28T10:47:56.108Z,17.35
2022-11-28T10:50:39.639Z,19.05
2022-11-28T10:53:07.277Z,21.27
2022-11-28T10:55:34.816Z,21.52
2022-11-28T10:58:15.154Z,20.05
2022-11-28T11:00:45.532Z,17.25
2022-11-28T11:03:15.115Z,20.70
2022-11-28T11:05:43.142Z,23.73
2022-11-28T11:08:22.562Z,17.08
2022-11-28T11:10:58.987Z,17.50
2022-11-28T11:13:28.086Z,17.90
2022-11-28T11:16:05.297Z,18.48
2022-11-28T11:18:35.065Z,18.95
2022-11-28T11:21:10.869Z,16.50
2022-11-28T11:23:38.776Z,18.52
2022-11-28T11:26:10.396Z,18.38
2022-11-28T11:28:46.134Z,17.13
2022-11-28T11:31:22.505Z,19.40
2022-11-28T11:33:53.510Z,17.23
2022-11-28T11:36:31.897Z,17.60
2022-11-28T11:39:26.013Z,16.25
2022-11-28T11:42:14.116Z,18.13
2022-11-28T11:44:42.053Z,17.63
2022-11-28T11:47:11.240Z,18.65
2022-11-28T11:49:40.150Z,20.55
2022-11-28T11:52:15.599Z,17.73
2022-11-28T11:54:49.545Z,20.10
2022-11-28T11:57:32.553Z,17.35
2022-11-28T12:00:21.946Z,18.02
2022-11-28T12:03:05.817Z,17.23
2022-11-28T12:06:12.747Z,17.92
2022-11-28T12:08:41.418Z,18.15
2022-11-28T12:11:15.523Z,16.52
2022-11-28T12:13:43.455Z,18.63
2022-11-28T12:16:26.415Z,16.25
2022-11-28T12:19:14.429Z,16.70
2022-11-28T12:21:47.758Z,16.90
2022-11-28T12:24:18.077Z,17.35
2022-11-28T12:26:45.943Z,16.15
2022-11-28T12:29:29.273Z,15.82
2022-11-28T12:32:05.992Z,15.40
2022-11-28T12:35:00.338Z,17.73
2022-11-28T12:38:02.820Z,16.67
2022-11-28T12:40:52.502Z,17.73
2022-11-28T12:43:20.040Z,15.40
2022-11-28T12:45:54.346Z,16.48
2022-11-28T12:48:21.880Z,17.02
2022-11-28T12:51:10.621Z,16.80
2022-11-28T12:53:58.997Z,15.95
2022-11-28T12:56:26.793Z,17.77
2022-11-28T12:58:54.347Z,14.18
2022-11-28T13:01:25.004Z,14.43
2022-11-28T13:04:05.348Z,15.52
2022-11-28T13:06:45.331Z,13.95
2022-11-28T13:09:27.057Z,13.50
2022-11-28T13:12:06.702Z,15.65
2022-11-28T13:14:41.800Z,18.97
2022-11-28T13:17:21.747Z,16.15
2022-11-28T13:19:52.840Z,15.98
2022-11-28T13:22:25.196Z,18.80
2022-11-28T13:25:01.686Z,17.48
2022-11-28T13:27:43.095Z,19.65
2022-11-28T13:30:26.965Z,22.77
2022-11-28T13:33:14.865Z,21.17
2022-11-28T13:35:43.633Z,20.65
2022-11-28T13:41:06.009Z,22.70
2022-11-28T13:43:34.290Z,24.70
2022-11-28T13:46:03.224Z,21.73
2022-11-28T13:49:06.022Z,24.67
2022-11-28T13:51:30.920Z,26.13
2022-11-28T13:54:20.085Z,36.42
2022-11-28T13:56:49.416Z,33.40
2022-11-28T13:59:19.807Z,42.95
2022-11-28T14:01:49.551Z,49.55
2022-11-28T14:04:18.981Z,47.63
2022-11-28T14:06:47.945Z,48.80
2022-11-28T14:09:34.753Z,51.80
2022-11-28T14:12:31.957Z,53.92
2022-11-28T14:15:15.610Z,64.32
2022-11-28T14:17:43.506Z,66.15
2022-11-28T14:20:29.749Z,72.65
2022-11-28T14:23:09.847Z,74.00
2022-11-28T14:25:43.024Z,82.60
2022-11-28T14:28:28.169Z,90.18
2022-11-28T14:31:05.309Z,90.32
2022-11-28T14:33:39.770Z,106.43
2022-11-28T14:36:29.756Z,105.60
2022-11-28T14:39:04.245Z,108.22
2022-11-28T14:41:33.889Z,110.30
2022-11-28T14:44:28.583Z,117.25
2022-11-28T14:47:06.785Z,111.00
2022-11-28T14:49:34.393Z,110.25
2022-11-28T14:52:30.891Z,123.82
2022-11-28T14:54:55.305Z,117.60
2022-11-28T14:57:25.297Z,116.90
2022-11-28T14:59:53.819Z,109.90
2022-11-28T15:02:35.334Z,129.40
2022-11-28T15:05:21.989Z,110.43
2022-11-28T15:07:55.769Z,123.50
2022-11-28T15:10:33.568Z,118.55
2022-11-28T15:13:04.438Z,133.93
2022-11-28T15:15:33.274Z,125.00
2022-11-28T15:18:06.184Z,133.65
2022-11-28T15:20:42.729Z,137.95
2022-11-28T15:23:27.392Z,126.22
2022-11-28T15:25:56.668Z,122.65
2022-11-28T15:28:28.684Z,118.75
2022-11-28T15:30:57.809Z,134.52
2022-11-28T15:33:26.774Z,120.47
2022-11-28T15:35:59.657Z,122.95
2022-11-28T15:38:28.309Z,121.93
2022-11-28T15:40:56.910Z,119.90
2022-11-28T15:43:26.396Z,123.43
2022-11-28T15:45:54.826Z,119.93
2022-11-28T15:48:39.033Z,121.45
2022-11-28T15:51:09.617Z,130.43
2022-11-28T15:53:42.607Z,115.53
2022-11-28T15:56:10.481Z,135.45
2022-11-28T15:58:39.442Z,137.35
2022-11-28T16:01:11.569Z,138.85
2022-11-28T16:03:49.282Z,135.50
2022-11-28T16:06:18.563Z,129.15
2022-11-28T16:08:56.240Z,127.47
2022-11-28T16:11:26.221Z,115.50
2022-11-28T16:13:59.761Z,156.77
2022-11-28T16:16:29.024Z,132.18
2022-11-28T16:19:02.006Z,128.50
2022-11-28T16:21:32.096Z,122.70
2022-11-28T16:24:02.470Z,130.43
2022-11-28T16:29:20.181Z,121.97
2022-11-28T16:31:51.090Z,133.80
2022-11-28T16:34:38.722Z,132.75
2022-11-28T16:37:11.247Z,124.05
2022-11-28T16:39:39.005Z,120.40
2022-11-28T16:42:13.546Z,142.88
2022-11-28T16:44:41.298Z,132.88
2022-11-28T16:47:23.313Z,125.28
2022-11-28T16:50:09.004Z,112.05
2022-11-28T16:52:44.148Z,119.25
2022-11-28T16:55:32.000Z,144.38
2022-11-28T16:58:11.128Z,116.22
2022-11-28T17:00:40.375Z,138.32
2022-11-28T17:03:12.674Z,120.40
2022-11-28T17:05:40.625Z,137.30
2022-11-28T17:08:09.185Z,124.35
2022-11-28T17:10:37.213Z,130.77
2022-11-28T17:13:07.395Z,139.57
2022-11-28T17:15:35.616Z,128.90
2022-11-28T17:18:03.777Z,134.80
2022-11-28T17:20:32.261Z,137.20
2022-11-28T17:22:59.794Z,133.20
2022-11-28T17:25:29.764Z,126.65
2022-11-28T17:27:57.472Z,127.78
2022-11-28T17:30:25.230Z,132.35
2022-11-28T17:32:53.153Z,128.93
2022-11-28T17:35:23.466Z,120.30
2022-11-28T17:37:51.321Z,121.13
2022-11-28T17:40:34.145Z,120.95
2022-11-28T17:43:05.123Z,120.25
2022-11-28T17:45:35.984Z,123.85
2022-11-28T17:48:08.035Z,121.70
2022-11-28T17:50:35.984Z,113.45
2022-11-28T17:53:05.718Z,119.30
2022-11-28T17:55:34.868Z,109.78
2022-11-28T17:58:04.237Z,111.47
2022-11-28T18:00:33.581Z,108.20
2022-11-28T18:03:04.078Z,120.75
2022-11-28T18:08:02.036Z,116.03
2022-11-28T18:10:30.235Z,110.95
2022-11-28T18:12:57.894Z,116.95
2022-11-28T18:15:26.452Z,106.38
2022-11-28T18:17:54.254Z,114.20
2022-11-28T18:20:22.241Z,121.25
2022-11-28T18:22:49.947Z,112.05
2022-11-28T18:25:17.855Z,102.53
2022-11-28T18:27:45.651Z,117.70
2022-11-28T18:30:13.831Z,121.07
2022-11-28T18:32:41.308Z,119.13
2022-11-28T18:35:09.604Z,121.32
2022-11-28T18:37:38.691Z,110.93
2022-11-28T18:40:09.296Z,109.32
2022-11-28T18:42:38.110Z,125.68
2022-11-28T18:45:06.144Z,119.13
2022-11-28T18:47:35.897Z,112.68
2022-11-28T18:50:07.097Z,114.25
2022-11-28T18:52:34.794Z,125.00
2022-11-28T18:55:03.655Z,112.13
2022-11-28T18:57:33.922Z,115.82
2022-11-28T19:00:05.399Z,126.43
2022-11-28T19:02:35.453Z,124.57
2022-11-28T19:05:04.195Z,126.23
2022-11-28T19:07:33.331Z,117.45
2022-11-28T19:10:00.915Z,122.80
2022-11-28T19:12:33.285Z,115.43
2022-11-28T19:15:03.687Z,113.78
2022-11-28T19:20:02.207Z,125.00
2022-11-28T19:22:31.010Z,122.88
2022-11-28T19:25:01.464Z,125.40
2022-11-28T19:27:30.701Z,119.25
2022-11-28T19:29:59.209Z,124.63
2022-11-28T19:32:26.999Z,113.10
2022-11-28T19:34:54.686Z,116.50
2022-11-28T19:37:23.331Z,120.80
2022-11-28T19:39:52.969Z,114.65
2022-11-28T19:42:20.827Z,113.85
2022-11-28T19:44:48.570Z,132.68
2022-11-28T19:47:16.612Z,116.70
2022-11-28T19:49:44.413Z,118.88
2022-11-28T19:52:12.185Z,135.27
2022-11-28T19:54:40.004Z,125.50
2022-11-28T19:57:11.401Z,108.15
2022-11-28T19:59:39.084Z,120.28
2022-11-28T20:02:07.800Z,119.20
2022-11-28T20:04:35.289Z,113.47
2022-11-28T20:07:07.958Z,111.13
2022-11-28T20:09:36.876Z,104.07
2022-11-28T20:12:04.679Z,103.28
2022-11-28T20:14:36.847Z,107.15
2022-11-28T20:17:06.336Z,105.22
2022-11-28T20:19:34.679Z,96.90
2022-11-28T20:22:05.526Z,93.03
2022-11-28T20:24:34.668Z,107.18
2022-11-28T20:27:08.665Z,96.55
2022-11-28T20:29:39.169Z,90.80
2022-11-28T20:32:07.363Z,91.47
2022-11-28T20:34:35.113Z,93.25
2022-11-28T20:37:04.769Z,90.78
2022-11-28T20:39:35.963Z,81.78
2022-11-28T20:42:08.093Z,96.68
2022-11-28T20:44:36.067Z,97.50
2022-11-28T20:47:04.835Z,95.15
2022-11-28T20:49:33.734Z,93.85
2022-11-28T20:52:03.839Z,96.53
2022-11-28T20:54:32.284Z,87.82
2022-11-28T20:59:47.820Z,81.45
2022-11-28T21:02:15.829Z,83.78
2022-11-28T21:04:46.671Z,74.97
2022-11-28T21:07:15.413Z,84.00
2022-11-28T21:09:43.543Z,76.43
2022-11-28T21:12:14.436Z,77.13
2022-11-28T21:14:45.791Z,81.93
2022-11-28T21:17:13.380Z,75.53
2022-11-28T21:19:42.390Z,85.15
2022-11-28T21:22:10.309Z,84.45
2022-11-28T21:24:38.728Z,71.70
2022-11-28T21:27:06.893Z,87.70
2022-11-28T21:29:34.756Z,77.75
2022-11-28T21:32:03.275Z,74.90
2022-11-28T21:34:30.975Z,82.28
2022-11-28T21:37:01.533Z,87.63
2022-11-28T21:39:30.121Z,76.07
2022-11-28T21:41:57.717Z,86.80
2022-11-28T21:44:25.395Z,79.00
2022-11-28T21:46:53.035Z,75.72
2022-11-28T21:49:21.224Z,85.53
2022-11-28T21:51:49.442Z,94.55
2022-11-28T21:54:17.776Z,83.15
2022-11-28T21:56:46.258Z,82.60
2022-11-28T21:59:14.344Z,77.90
2022-11-28T22:01:42.149Z,79.85
2022-11-28T22:04:10.799Z,77.80
2022-11-28T22:06:39.631Z,80.18
2022-11-28T22:09:09.852Z,90.32
2022-11-28T22:11:39.474Z,84.00
2022-11-28T22:14:07.769Z,91.22
2022-11-28T22:16:36.114Z,82.50
2022-11-28T22:19:05.873Z,82.45
2022-11-28T22:24:22.094Z,94.57
2022-11-28T22:26:49.750Z,92.57
2022-11-28T22:29:19.282Z,98.85
2022-11-28T22:31:46.891Z,94.88
2022-11-28T22:34:15.265Z,99.43
2022-11-28T22:36:43.063Z,86.90
2022-11-28T22:39:11.620Z,97.10
2022-11-28T22:41:39.392Z,100.32
2022-11-28T22:44:07.171Z,102.55
2022-11-28T22:46:35.152Z,98.15
2022-11-28T22:49:07.477Z,96.95
2022-11-28T22:51:35.214Z,94.97
2022-11-28T22:54:03.344Z,97.65
2022-11-28T22:56:33.136Z,100.05
2022-11-28T22:59:02.223Z,97.90
2022-11-28T23:01:33.730Z,109.03
2022-11-28T23:04:02.131Z,107.70
2022-11-28T23:06:34.057Z,100.35
2022-11-28T23:09:03.973Z,106.90
2022-11-28T23:11:33.830Z,103.70
2022-11-28T23:14:02.889Z,105.40
2022-11-28T23:16:33.024Z,105.45
2022-11-28T23:19:02.050Z,92.13
2022-11-28T23:21:34.651Z,103.15
2022-11-28T23:24:03.156Z,102.40
2022-11-28T23:26:33.087Z,112.68
2022-11-28T23:29:02.116Z,108.03
2022-11-28T23:31:30.701Z,98.00
2022-11-28T23:33:59.846Z,100.07
2022-11-28T23:36:30.259Z,98.10
2022-11-28T23:39:02.920Z,105.47
2022-11-28T23:41:30.706Z,99.20
2022-11-28T23:43:58.978Z,101.70
2022-11-28T23:46:27.984Z,111.63
2022-11-28T23:48:55.707Z,99.15
2022-11-28T23:51:25.016Z,106.45
2022-11-28T23:53:54.041Z,102.72
2022-11-28T23:56:23.456Z,106.13
2022-11-28T23:58:51.444Z,99.47
